Terminal Aerodrome Forecast
Issued by NWS

Home | Current Version | Previous Version | Graphics & Text | Print | Product List | Glossary On
Versions: 1 2 3 4 5 6 7 8 9 10 11 12 13 14 15 16 17 18 19 20 21 22 23 24
006
FTUS43 KABR 170527
TAFMBG
TAF
KMBG 170527Z 1706/1806 13014KT P6SM FEW250
     FM171700 13019G27KT P6SM BKN110
     FM172100 13012KT P6SM BKN060
     FM180000 11009KT P6SM -RA OVC025
     FM180300 VRB06KT P6SM -RASN OVC025
     FM180500 VRB06KT 4SM -SN BR OVC030=

USA.gov is the U.S. government's official web portal to all federal, state and local government web resources and services.